Date,TemperatureHighF,TemperatureAvgF,TemperatureLowF,DewpointHighF,DewpointAvgF,DewpointLowF,HumidityHigh,HumidityAvg,HumidityLow,PressureMaxIn,PressureMinIn,WindSpeedMaxMPH,WindSpeedAvgMPH,GustSpeedMaxMPH,PrecipitationSumIn
2013-11-1,69.1,61.4,48.6,65.1,57.6,48.6,100,88,56,29.71,29.51,22,2,25,0.36
2013-11-2,66.9,52.6,45.7,52.8,45.0,37.8,100,78,44,29.76,29.59,11,0,12,0.00
2013-11-3,51.1,44.0,32.1,42.1,31.4,18.6,89,63,36,30.41,29.75,5,0,11,0.00
2013-11-4,46.7,34.6,25.4,24.1,19.4,12.4,81,57,27,30.60,30.41,7,0,10,0.00
2013-11-5,57.8,42.3,27.9,41.6,34.3,22.8,93,75,48,30.59,30.42,11,0,11,0.00
2013-11-6,65.0,51.4,39.9,52.4,45.3,38.3,100,82,53,30.44,30.02,12,1,12,0.00
2013-11-7,60.9,51.0,38.3,58.6,48.0,32.2,100,90,70,30.02,29.73,13,1,13,0.04
2013-11-8,49.1,41.1,32.5,36.6,28.9,25.2,89,63,41,30.19,29.91,15,1,19,0.00
2013-11-9,50.1,38.8,26.6,31.4,27.5,23.6,92,66,38,30.25,29.94,11,1,15,0.00
2013-11-10,58.3,46.2,32.8,36.5,31.3,25.5,94,59,39,30.03,29.80,23,3,28,0.00
2013-11-11,54.2,46.7,36.5,33.6,29.2,24.3,63,51,38,30.17,29.91,16,2,16,0.00
2013-11-12,49.8,36.5,25.0,36.2,22.9,14.8,86,58,45,30.27,29.89,7,1,15,0.01
2013-11-13,26.9,26.2,25.3,15.0,14.3,13.7,62,60,59,30.27,30.25,2,0,5,0.00
2013-11-14,53.1,38.9,26.6,21.5,16.9,11.5,71,44,20,30.23,30.13,9,2,22,0.01
2013-11-15,55.9,38.8,25.2,32.2,25.1,20.1,85,61,27,30.20,30.11,4,0,9,0.00
2013-11-16,59.9,47.1,34.1,47.4,41.6,28.0,100,83,51,30.28,30.19,5,0,7,0.03
2013-11-17,64.3,55.0,46.5,59.6,53.4,46.5,100,95,78,30.22,29.72,8,0,14,0.01
2013-11-18,64.7,58.2,48.2,63.2,40.6,23.5,100,57,27,29.78,29.57,29,3,29,0.21
2013-11-19,48.0,42.0,32.8,28.8,24.1,20.5,64,49,41,30.31,29.78,17,2,19,0.00
2013-11-20,45.5,33.1,22.9,22.3,15.3,3.9,75,51,19,30.56,30.30,6,0,8,0.00
2013-11-21,52.0,37.3,20.0,40.9,28.3,15.0,91,71,51,30.56,30.34,6,0,7,0.00
2013-11-22,57.6,50.1,44.6,51.9,46.3,40.2,100,87,72,30.33,29.88,11,1,16,0.04
2013-11-23,52.8,40.8,28.7,48.3,25.2,5.0,90,55,36,30.01,29.88,17,2,30,0.00
2013-11-24,28.5,24.5,21.3,5.6,0.9,-2.5,48,35,29,30.36,30.01,22,2,23,0.00
2013-11-25,34.9,27.2,17.3,14.8,11.0,4.3,72,51,39,30.44,30.28,11,1,13,0.00
2013-11-26,40.5,33.7,30.3,40.5,26.5,14.7,100,77,51,30.28,29.64,7,0,10,0.63
2013-11-27,60.4,42.9,31.6,60.4,40.3,18.1,100,91,55,29.76,29.33,15,2,21,1.56
2013-11-28,35.8,30.4,26.0,21.6,15.4,9.9,70,54,35,30.42,29.74,23,2,23,0.00
2013-11-29,38.9,29.5,22.1,22.8,18.9,14.1,89,65,45,30.68,30.41,10,0,11,0.00
2013-11-30,35.6,26.6,17.0,27.5,19.5,4.4,87,75,55,30.69,30.33,7,0,10,0.00